Time;durP1;ratioP1;P1;durP2;ratioP2;P2;SDS_P1;SDS_P2;PMS_P1;PMS_P2;Temp;Humidity;BMP_temperature;BMP_pressure;BME280_temperature;BME280_humidity;BME280_pressure;Samples;Min_cycle;Max_cycle;Signal;HPM_P1;HPM_P2
2022/04/06 00:02:07;;;;;;;5.37;3.33;;;10.20;99.30;;;10.28;66.82;96955.13;4948225;28;20062;-40
2022/04/06 00:04:35;;;;;;;4.63;3.23;;;10.20;99.30;;;10.23;66.93;96955.63;4948438;29;20268;-40
2022/04/06 00:07:04;;;;;;;4.50;3.00;;;10.20;99.50;;;10.24;66.93;96962.63;4950141;29;20123;-40
2022/04/06 00:09:32;;;;;;;3.57;2.57;;;10.20;99.60;;;10.22;66.78;96946.84;4948225;29;20043;-40
2022/04/06 00:12:00;;;;;;;3.90;2.80;;;10.20;99.50;;;10.24;66.64;96947.47;4948365;28;20260;-40
2022/04/06 00:14:27;;;;;;;4.07;2.60;;;10.20;99.20;;;10.23;66.62;96932.50;4949116;28;20069;-40
2022/04/06 00:16:58;;;;;;;3.47;2.67;;;10.20;99.20;;;10.24;66.59;96931.53;4949635;29;20496;-40
2022/04/06 00:19:25;;;;;;;4.20;2.80;;;10.30;99.10;;;10.26;66.81;96936.69;4949356;29;20437;-40
2022/04/06 00:21:53;;;;;;;4.07;3.00;;;10.20;99.00;;;10.29;66.54;96932.81;4947566;29;20055;-40
2022/04/06 00:24:21;;;;;;;3.13;2.37;;;10.30;98.90;;;10.27;66.87;96937.50;4947859;28;20065;-40
2022/04/06 00:26:49;;;;;;;4.57;2.87;;;10.20;98.90;;;10.30;66.59;96932.69;4949135;29;20061;-40
2022/04/06 00:29:17;;;;;;;4.37;2.43;;;10.20;98.80;;;10.31;66.65;96934.31;4946371;29;20055;-40
2022/04/06 00:31:45;;;;;;;3.83;2.60;;;10.30;98.70;;;10.30;66.70;96926.50;4948540;29;20067;-40
2022/04/06 00:34:13;;;;;;;3.10;2.30;;;10.30;98.80;;;10.34;66.29;96927.84;4948646;29;20261;-40
2022/04/06 00:36:40;;;;;;;3.63;3.03;;;10.30;99.60;;;10.34;66.91;96926.00;4947811;28;20063;-40
2022/04/06 00:39:09;;;;;;;3.30;2.50;;;10.30;98.70;;;10.36;66.34;96929.31;4947058;28;20077;-40
2022/04/06 00:41:39;;;;;;;4.97;2.40;;;10.30;98.50;;;10.36;66.62;96923.16;4948545;28;20055;-40
2022/04/06 00:44:16;;;;;;;3.20;2.67;;;10.30;98.10;;;10.38;66.47;96929.97;4948812;28;20280;-40
2022/04/06 00:46:45;;;;;;;3.97;2.30;;;10.40;98.00;;;10.38;66.25;96921.97;4949101;28;20067;-40
2022/04/06 00:49:14;;;;;;;3.28;2.50;;;10.30;98.10;;;10.39;66.50;96913.00;4948021;29;20077;-40
2022/04/06 00:51:46;;;;;;;2.78;1.90;;;10.30;98.00;;;10.40;66.64;96919.97;4946473;29;20051;-40
2022/04/06 00:54:19;;;;;;;3.03;2.43;;;10.30;98.10;;;10.42;66.49;96917.94;4948571;28;20055;-40
2022/04/06 00:56:48;;;;;;;3.50;2.60;;;10.40;98.10;;;10.40;66.65;96911.16;4948137;29;20053;-40
2022/04/06 00:59:18;;;;;;;3.47;2.47;;;10.30;98.10;;;10.40;66.24;96908.50;4949427;28;20071;-40
2022/04/06 01:01:49;;;;;;;4.37;2.37;;;10.40;98.10;;;10.40;66.11;96906.66;4951273;28;20066;-40
2022/04/06 01:04:18;;;;;;;2.60;2.07;;;10.30;98.20;;;10.43;66.61;96906.31;4952155;28;20065;-40
2022/04/06 01:06:48;;;;;;;4.13;2.47;;;10.40;98.10;;;10.47;66.29;96904.13;4953079;28;20059;-40
2022/04/06 01:09:18;;;;;;;4.03;2.55;;;10.40;98.00;;;10.45;66.59;96900.81;4950397;29;20059;-40
2022/04/06 01:11:51;;;;;;;2.97;2.20;;;10.40;97.80;;;10.46;66.29;96904.31;4952804;29;20039;-40
2022/04/06 01:14:20;;;;;;;3.05;2.20;;;10.40;97.70;;;10.46;66.35;96898.97;4950646;29;20096;-40
2022/04/06 01:17:02;;;;;;;2.97;2.10;;;10.30;97.60;;;10.47;65.98;96905.94;4951674;29;20085;-40
2022/04/06 01:19:34;;;;;;;3.97;2.08;;;10.40;97.60;;;10.49;66.12;96896.78;4951267;28;20043;-40
2022/04/06 01:22:11;;;;;;;2.53;2.33;;;10.40;97.70;;;10.48;66.12;96903.09;4950778;29;20059;-40
2022/04/06 01:24:40;;;;;;;3.13;2.33;;;10.40;97.60;;;10.49;65.88;96890.63;4952154;29;20051;-40
2022/04/06 01:27:09;;;;;;;3.10;2.40;;;10.40;97.60;;;10.48;65.89;96896.97;4952514;29;20051;-40
2022/04/06 01:29:38;;;;;;;3.50;2.00;;;10.30;97.40;;;10.46;66.10;96894.47;4951948;29;20364;-39
2022/04/06 01:32:19;;;;;;;3.63;2.27;;;10.30;97.60;;;10.46;65.87;96899.81;4952054;29;20077;-39
2022/04/06 01:34:48;;;;;;;4.07;2.60;;;10.40;97.30;;;10.44;65.86;96897.31;4951681;28;20061;-39
2022/04/06 01:37:17;;;;;;;3.80;2.30;;;10.40;97.40;;;10.43;66.06;96894.84;4951552;29;20061;-39
2022/04/06 01:39:48;;;;;;;3.23;2.50;;;10.30;97.20;;;10.39;66.46;96905.03;4950097;29;20737;-39
2022/04/06 01:42:18;;;;;;;2.93;2.30;;;10.30;97.10;;;10.39;66.31;96894.38;4951970;29;20073;-39
2022/04/06 01:44:49;;;;;;;3.33;2.30;;;10.30;97.60;;;10.41;66.07;96894.19;4951930;28;20067;-39
2022/04/06 01:47:19;;;;;;;3.17;2.33;;;10.30;97.60;;;10.41;66.07;96895.03;4950718;28;20142;-39
2022/04/06 01:52:35;;;;;;;3.70;2.67;;;10.40;97.20;;;10.42;66.11;96893.19;4950969;29;20057;-39
2022/04/06 01:55:14;;;;;;;3.67;2.00;;;10.40;97.10;;;10.43;66.01;96890.34;4951531;29;20361;-39
2022/04/06 01:57:44;;;;;;;3.33;2.07;;;10.40;97.10;;;10.44;66.39;96889.31;4949409;29;20055;-40
2022/04/06 02:00:16;;;;;;;3.20;2.30;;;10.40;97.00;;;10.44;66.03;96881.34;4950090;29;20063;-40
2022/04/06 02:02:52;;;;;;;3.37;2.60;;;10.40;96.70;;;10.46;66.35;96878.50;4950699;29;20059;-40
2022/04/06 02:05:22;;;;;;;4.97;2.30;;;10.40;96.80;;;10.48;66.49;96881.81;4950633;29;20061;-40
2022/04/06 02:07:52;;;;;;;3.33;2.20;;;10.40;96.70;;;10.47;66.06;96876.66;4951181;29;20061;-39
2022/04/06 02:10:21;;;;;;;3.60;2.20;;;10.40;96.20;;;10.48;65.89;96878.34;4949265;28;20059;-39
2022/04/06 02:12:51;;;;;;;3.97;2.77;;;10.40;96.40;;;10.48;66.16;96873.84;4951510;29;20053;-39
2022/04/06 02:15:19;;;;;;;2.57;1.93;;;10.40;96.20;;;10.49;65.88;96867.53;4950667;29;20051;-40
2022/04/06 02:17:47;;;;;;;4.13;2.20;;;10.40;96.20;;;10.49;65.82;96867.53;4949501;29;20283;-39
2022/04/06 02:20:16;;;;;;;3.23;2.40;;;10.40;96.20;;;10.49;66.12;96874.66;4950245;29;20047;-39
2022/04/06 02:22:49;;;;;;;3.53;2.50;;;10.40;96.30;;;10.51;66.11;96872.66;4950452;29;20055;-39
2022/04/06 02:25:17;;;;;;;3.33;2.63;;;10.40;96.30;;;10.51;65.81;96870.00;4950685;29;20051;-39
2022/04/06 02:27:51;;;;;;;3.60;3.00;;;10.40;96.30;;;10.52;65.90;96866.31;4950946;29;20043;-39
2022/04/06 02:30:20;;;;;;;4.32;2.67;;;10.40;96.60;;;10.51;66.01;96867.34;4950361;29;20051;-39
2022/04/06 02:32:49;;;;;;;4.80;3.10;;;10.40;96.60;;;10.52;65.96;96863.66;4948051;29;20085;-39
2022/04/06 02:35:17;;;;;;;4.53;2.92;;;10.40;97.10;;;10.52;65.85;96869.00;4950963;28;20085;-39
2022/04/06 02:37:45;;;;;;;6.00;3.23;;;10.40;97.30;;;10.50;66.23;96865.69;4949076;28;20059;-39
2022/04/06 02:40:15;;;;;;;4.07;3.07;;;10.30;97.80;;;10.48;66.23;96857.06;4949892;29;20047;-39
2022/04/06 02:42:44;;;;;;;4.73;3.50;;;10.30;97.90;;;10.47;65.98;96858.91;4950083;29;20057;-39
2022/04/06 02:45:13;;;;;;;4.47;3.22;;;10.30;98.20;;;10.46;66.34;96851.09;4950231;29;20050;-39
2022/04/06 02:47:46;;;;;;;4.43;3.60;;;10.20;98.20;;;10.46;65.91;96851.91;4951150;29;20066;-38
2022/04/06 02:50:15;;;;;;;6.83;3.63;;;10.30;98.30;;;10.43;66.08;96850.44;4932091;29;20050;-39
2022/04/06 02:52:43;;;;;;;6.13;4.00;;;10.30;98.50;;;10.41;66.03;96849.78;4949727;28;20055;-39
2022/04/06 02:55:12;;;;;;;4.95;4.13;;;10.20;98.70;;;10.40;66.43;96847.31;4947132;29;20143;-41
2022/04/06 02:57:43;;;;;;;5.43;3.73;;;10.20;98.70;;;10.41;66.36;96854.25;4950109;28;20063;-39
2022/04/06 03:00:13;;;;;;;6.97;4.10;;;10.20;99.00;;;10.37;66.27;96837.84;4949371;29;20051;-39
2022/04/06 03:02:42;;;;;;;6.63;4.30;;;10.20;99.20;;;10.35;66.47;96841.69;4949618;29;20465;-39
2022/04/06 03:05:11;;;;;;;5.57;4.07;;;10.20;99.60;;;10.28;66.30;96835.41;4949877;28;20059;-39
2022/04/06 03:07:39;;;;;;;7.57;4.80;;;10.10;99.90;;;10.27;66.41;96833.75;4950822;29;20057;-39
2022/04/06 03:10:08;;;;;;;6.73;4.53;;;10.00;99.90;;;10.27;66.63;96837.22;4948228;29;20537;-39
2022/04/06 03:12:36;;;;;;;7.57;4.67;;;10.10;99.90;;;10.25;66.82;96840.09;4949770;29;20043;-39
2022/04/06 03:15:06;;;;;;;5.77;4.67;;;10.10;99.90;;;10.23;67.01;96823.44;4949013;29;20043;-39
2022/04/06 03:17:34;;;;;;;5.97;4.67;;;10.00;99.90;;;10.22;67.03;96826.31;4950776;29;20353;-39
2022/04/06 03:20:05;;;;;;;5.77;4.47;;;10.10;99.90;;;10.21;66.87;96828.13;4949801;29;20051;-40
2022/04/06 03:22:33;;;;;;;5.70;4.20;;;10.00;99.90;;;10.21;66.81;96822.81;4948958;28;20058;-40
2022/04/06 03:25:01;;;;;;;6.53;4.83;;;10.00;99.90;;;10.21;67.01;96822.81;4950467;29;20057;-40
2022/04/06 03:27:28;;;;;;;8.87;4.63;;;10.10;99.90;;;10.21;67.06;96825.47;4950363;28;20055;-40
2022/04/06 03:29:56;;;;;;;7.27;4.27;;;10.00;99.90;;;10.17;67.38;96816.19;4949055;29;20059;-39
2022/04/06 03:32:24;;;;;;;5.13;4.27;;;10.00;99.90;;;10.15;67.23;96812.06;4948591;28;20069;-40
2022/04/06 03:34:52;;;;;;;5.77;4.03;;;10.00;99.90;;;10.15;67.31;96812.88;4949017;28;20256;-40
2022/04/06 03:37:20;;;;;;;7.00;4.67;;;10.00;99.90;;;10.12;67.72;96807.94;4949532;29;20268;-40
2022/04/06 03:39:48;;;;;;;8.37;4.37;;;9.90;99.90;;;10.11;67.61;96811.59;4948305;29;20051;-40
2022/04/06 03:42:16;;;;;;;6.80;4.63;;;9.90;99.90;;;10.11;67.79;96813.44;4949440;29;20055;-40
2022/04/06 03:44:44;;;;;;;6.07;4.47;;;9.90;99.90;;;10.10;67.53;96811.75;4948714;29;20070;-40
2022/04/06 03:47:12;;;;;;;5.80;4.63;;;10.00;99.90;;;10.08;67.60;96809.31;4948803;29;20062;-40
2022/04/06 03:49:40;;;;;;;7.00;4.10;;;9.90;99.90;;;10.08;67.78;96814.63;4948383;29;20078;-40
2022/04/06 03:52:08;;;;;;;5.30;4.13;;;9.90;99.90;;;10.07;67.97;96820.94;4947836;29;20051;-40
2022/04/06 03:54:36;;;;;;;6.80;4.20;;;9.90;99.90;;;10.03;68.19;96809.00;4946295;29;20371;-40
2022/04/06 03:57:04;;;;;;;5.77;4.50;;;9.80;99.90;;;10.02;67.86;96807.34;4949416;29;20055;-40
2022/04/06 03:59:33;;;;;;;5.87;4.47;;;9.80;99.90;;;10.04;68.28;96808.84;4947857;29;20248;-40
2022/04/06 04:02:00;;;;;;;5.67;3.93;;;9.90;99.90;;;10.01;68.44;96808.34;4948787;29;20051;-40
2022/04/06 04:04:28;;;;;;;4.87;3.83;;;9.80;99.90;;;10.01;68.44;96808.34;4948821;29;20791;-40
2022/04/06 04:06:56;;;;;;;5.33;3.43;;;9.90;99.90;;;10.02;68.13;96807.34;4948461;28;20055;-39
2022/04/06 04:09:30;;;;;;;4.80;3.97;;;9.90;99.90;;;9.99;68.43;96795.22;4946976;28;20055;-40
2022/04/06 04:11:58;;;;;;;5.77;4.10;;;9.80;99.90;;;10.01;68.24;96811.84;4948613;29;20055;-40
2022/04/06 04:14:26;;;;;;;4.67;3.90;;;9.90;99.90;;;10.02;68.61;96810.84;4946922;29;20055;-40
2022/04/06 04:16:54;;;;;;;5.40;4.13;;;9.80;99.90;;;9.98;68.44;96804.22;4950056;29;20055;-40
2022/04/06 04:19:22;;;;;;;5.53;4.47;;;9.80;99.90;;;9.96;68.90;96805.41;4949149;28;20059;-40
2022/04/06 04:21:50;;;;;;;5.13;3.73;;;9.80;99.90;;;9.93;68.88;96805.75;4949158;28;20062;-40
2022/04/06 04:24:19;;;;;;;8.60;4.57;;;9.80;99.90;;;9.92;68.85;96818.22;4949002;29;20063;-39
2022/04/06 04:26:47;;;;;;;7.70;4.10;;;9.70;99.90;;;9.89;69.05;96804.44;4948101;28;20062;-40
2022/04/06 04:29:15;;;;;;;5.57;4.03;;;9.70;99.90;;;9.88;68.87;96802.81;4947982;28;20357;-39
2022/04/06 04:31:44;;;;;;;4.63;3.93;;;9.70;99.90;;;9.91;68.91;96805.94;4947574;29;20051;-39
2022/04/06 04:34:13;;;;;;;5.87;3.97;;;9.70;99.90;;;9.92;69.07;96794.28;4947967;28;20371;-40
2022/04/06 04:36:41;;;;;;;5.83;4.17;;;9.70;99.90;;;9.92;69.03;96791.63;4949668;29;20049;-40
2022/04/06 04:39:09;;;;;;;5.10;3.93;;;9.70;99.90;;;9.92;68.65;96793.47;4948440;29;20043;-40
2022/04/06 04:41:37;;;;;;;4.90;4.07;;;9.70;99.90;;;9.92;68.75;96796.94;4947260;28;20337;-40
2022/04/06 04:44:05;;;;;;;4.70;3.60;;;9.70;99.90;;;9.93;69.17;96795.94;4947380;29;20054;-40
2022/04/06 04:46:33;;;;;;;5.30;4.07;;;9.80;99.90;;;9.93;68.84;96790.63;4948267;28;20059;-40
2022/04/06 04:49:01;;;;;;;5.27;4.33;;;9.70;99.90;;;9.93;68.89;96785.31;4948005;28;20054;-39
2022/04/06 04:51:29;;;;;;;5.90;4.73;;;9.70;99.90;;;9.95;68.72;96793.13;4949153;29;20047;-40
2022/04/06 04:53:58;;;;;;;5.00;3.97;;;9.70;99.90;;;9.96;69.20;96797.41;4949500;29;20273;-40
2022/04/06 04:56:28;;;;;;;5.80;3.87;;;9.80;99.90;;;9.95;69.00;96783.31;4949050;29;20047;-40
2022/04/06 04:58:56;;;;;;;5.77;4.30;;;9.80;99.90;;;9.96;68.93;96776.97;4947740;29;20051;-40
2022/04/06 05:01:25;;;;;;;6.23;3.50;;;9.80;99.90;;;9.96;68.92;96782.28;4947568;29;20051;-40
2022/04/06 05:03:52;;;;;;;5.27;3.80;;;9.80;99.90;;;9.94;68.79;96789.59;4948048;29;20270;-40
2022/04/06 05:06:20;;;;;;;5.87;4.10;;;9.70;99.90;;;9.95;68.88;96788.63;4947829;29;20065;-40
2022/04/06 05:08:48;;;;;;;5.47;4.40;;;9.70;99.90;;;9.94;68.98;96792.28;4948851;29;20059;-40
2022/04/06 05:11:16;;;;;;;5.23;4.07;;;9.70;99.90;;;9.91;69.13;96786.50;4947820;29;20392;-39
2022/04/06 05:13:44;;;;;;;7.47;4.97;;;9.70;99.90;;;9.91;69.05;96787.31;4946269;29;20055;-40
2022/04/06 05:16:12;;;;;;;5.50;3.87;;;9.70;99.90;;;9.92;69.15;96786.31;4949455;29;20137;-40
2022/04/06 05:18:40;;;;;;;7.30;4.87;;;9.70;99.90;;;9.93;68.98;96784.50;4948578;28;20359;-40
2022/04/06 05:21:09;;;;;;;5.40;4.70;;;9.70;99.90;;;9.89;69.28;96781.34;4948627;29;20046;-40
2022/04/06 05:23:37;;;;;;;5.53;3.80;;;9.70;99.90;;;9.91;69.36;96778.53;4948600;29;20442;-41
2022/04/06 05:26:05;;;;;;;5.17;3.77;;;9.70;99.90;;;9.91;69.12;96774.03;4948554;28;20058;-40
2022/04/06 05:28:33;;;;;;;7.43;4.20;;;9.70;99.90;;;9.92;68.86;96773.00;4946313;28;20067;-40
2022/04/06 05:31:01;;;;;;;5.10;4.23;;;9.80;99.90;;;9.96;69.16;96784.13;4948090;29;20051;-40
2022/04/06 05:33:29;;;;;;;5.50;4.47;;;9.80;99.90;;;9.97;69.15;96783.94;4948153;28;20051;-40
2022/04/06 05:35:57;;;;;;;7.07;4.73;;;9.80;99.90;;;9.98;68.84;96787.44;4948795;29;20392;-40
2022/04/06 05:38:25;;;;;;;5.40;3.93;;;9.90;99.90;;;9.99;69.08;96776.63;4947444;28;20063;-40
2022/04/06 05:40:53;;;;;;;7.70;4.13;;;9.90;99.90;;;10.00;69.07;96778.28;4946820;29;20141;-41
2022/04/06 05:43:21;;;;;;;6.63;3.83;;;9.90;99.90;;;10.03;68.79;96782.41;4946396;28;20245;-41
2022/04/06 05:45:49;;;;;;;5.73;4.87;;;9.90;99.90;;;10.01;69.03;96784.44;4949770;28;20051;-41
2022/04/06 05:48:17;;;;;;;6.03;5.23;;;9.90;99.90;;;10.04;69.10;96792.88;4952364;29;20458;-41
2022/04/06 05:50:46;;;;;;;5.53;4.70;;;10.00;99.90;;;10.05;68.65;96788.38;4950907;29;20232;-40
2022/04/06 05:53:14;;;;;;;6.33;5.00;;;10.00;99.90;;;10.08;68.67;96789.84;4950799;28;20062;-40
2022/04/06 05:55:45;;;;;;;8.13;5.20;;;10.00;99.90;;;10.11;68.95;96785.00;4951788;29;20055;-40
2022/04/06 05:58:14;;;;;;;6.23;4.20;;;10.00;99.90;;;10.13;68.96;96790.97;4950842;28;20087;-40
2022/04/06 06:00:42;;;;;;;9.47;6.03;;;10.00;99.90;;;10.14;68.98;96781.13;4949146;29;20070;-40
2022/04/06 06:03:10;;;;;;;7.93;5.57;;;10.00;99.90;;;10.17;68.68;96783.44;4950521;29;20069;-40
2022/04/06 06:05:38;;;;;;;9.40;6.20;;;10.00;99.90;;;10.18;68.75;96787.78;4950945;29;20241;-40
2022/04/06 06:08:35;;;;;;;6.87;5.37;;;10.10;99.90;;;10.21;68.77;96788.22;4950344;29;20070;-40
2022/04/06 06:11:04;;;;;;;5.03;4.50;;;10.10;99.90;;;10.21;68.54;96785.56;4950428;29;20054;-40
2022/04/06 06:13:32;;;;;;;5.37;3.70;;;10.10;99.90;;;10.24;68.63;96787.88;4950949;29;20043;-41
2022/04/06 06:16:01;;;;;;;5.03;3.53;;;10.10;99.90;;;10.26;68.34;96787.69;4951564;29;20055;-39
2022/04/06 06:18:28;;;;;;;3.80;3.10;;;10.20;99.90;;;10.22;68.59;96781.09;4950800;29;20047;-40
2022/04/06 06:20:59;;;;;;;3.77;3.10;;;10.20;99.90;;;10.22;68.34;96781.09;4951126;29;20065;-39
2022/04/06 06:23:27;;;;;;;6.20;4.10;;;10.20;99.90;;;10.24;68.37;96790.53;4949447;29;20248;-39
2022/04/06 06:25:55;;;;;;;5.00;3.27;;;10.20;99.90;;;10.16;68.35;96779.97;4951279;29;20055;-39
2022/04/06 06:28:24;;;;;;;5.13;2.97;;;10.10;99.90;;;10.18;68.66;96780.63;4949853;29;20244;-39
2022/04/06 06:30:51;;;;;;;13.07;3.47;;;10.20;99.90;;;10.27;68.48;96785.84;4949728;29;20063;-39
2022/04/06 06:33:19;;;;;;;4.50;3.23;;;10.20;99.90;;;10.30;68.22;96780.19;4950506;29;20047;-40
2022/04/06 06:35:52;;;;;;;4.07;2.87;;;10.30;99.90;;;10.30;68.22;96780.19;4951290;29;20337;-40
2022/04/06 06:38:19;;;;;;;4.53;2.93;;;10.30;99.90;;;10.30;68.29;96781.03;4950474;29;20051;-40
2022/04/06 06:40:48;;;;;;;3.67;2.90;;;10.30;99.90;;;10.32;68.02;96787.00;4951305;29;20493;-40
2022/04/06 06:43:16;;;;;;;5.63;3.17;;;10.30;99.90;;;10.35;68.42;96777.81;4950043;29;20054;-40
2022/04/06 06:45:44;;;;;;;3.30;2.90;;;10.40;99.90;;;10.37;68.11;96781.13;4949241;29;20090;-40
2022/04/06 06:48:13;;;;;;;5.83;3.03;;;10.40;99.90;;;10.40;67.91;96784.25;4948971;29;20055;-40
2022/04/06 06:50:41;;;;;;;3.77;3.07;;;10.40;99.90;;;10.33;67.99;96783.34;4950207;29;20586;-40
2022/04/06 06:53:09;;;;;;;3.40;2.63;;;10.40;99.90;;;10.29;68.20;96782.00;4947340;29;20062;-40
2022/04/06 06:55:37;;;;;;;4.43;2.27;;;10.30;99.90;;;10.30;67.88;96786.38;4948240;28;20047;-41
2022/04/06 06:58:05;;;;;;;3.03;2.10;;;10.30;99.90;;;10.34;67.91;96784.19;4949132;28;20078;-41
2022/04/06 07:00:33;;;;;;;5.67;3.70;;;10.30;99.90;;;10.38;67.81;96785.47;4949316;29;20047;-41
2022/04/06 07:03:01;;;;;;;10.33;5.00;;;10.40;99.90;;;10.39;68.07;96782.63;4948938;29;20051;-41
2022/04/06 07:05:29;;;;;;;15.50;10.60;;;10.40;99.90;;;10.44;67.77;96779.41;4949792;28;20352;-41
2022/04/06 07:08:01;;;;;;;6.53;3.60;;;10.50;99.90;;;10.49;67.66;96784.19;4949204;29;20047;-41
2022/04/06 07:10:29;;;;;;;5.40;2.77;;;10.40;99.90;;;10.52;67.60;96773.19;4948609;28;20063;-41
2022/04/06 07:12:58;;;;;;;5.73;3.07;;;10.50;99.90;;;10.57;68.13;96776.13;4950735;29;20559;-41
2022/04/06 07:15:27;;;;;;;4.45;3.20;;;10.60;99.90;;;10.61;67.57;96774.75;4948477;29;20658;-41
2022/04/06 07:17:57;;;;;;;4.20;3.70;;;10.60;99.90;;;10.65;67.95;96773.38;4949340;28;20059;-40
2022/04/06 07:20:31;;;;;;;4.97;3.00;;;10.70;99.90;;;10.68;68.13;96778.31;4948962;29;20081;-41
2022/04/06 07:22:59;;;;;;;4.57;2.87;;;10.70;99.90;;;10.69;67.85;96777.31;4949924;29;20063;-41
2022/04/06 07:25:26;;;;;;;4.00;2.87;;;10.70;99.90;;;10.72;67.39;96770.78;4948219;28;20061;-41
2022/04/06 07:27:54;;;;;;;2.83;2.07;;;10.70;99.90;;;10.70;67.52;96780.81;4948219;29;20055;-41
2022/04/06 07:30:22;;;;;;;3.65;2.63;;;10.70;99.90;;;10.73;67.71;96770.63;4949106;29;20276;-41
2022/04/06 07:32:51;;;;;;;4.15;2.60;;;10.70;99.90;;;10.76;67.83;96772.06;4949560;29;20119;-41
2022/04/06 07:35:19;;;;;;;3.97;2.60;;;10.70;99.90;;;10.79;67.82;96772.53;4949000;29;20561;-41
2022/04/06 07:37:49;;;;;;;3.80;2.58;;;10.80;99.90;;;10.83;67.35;96771.16;4949104;29;20058;-41
2022/04/06 07:40:23;;;;;;;5.85;3.00;;;10.80;99.90;;;10.87;67.65;96770.81;4947812;29;20361;-40
2022/04/06 07:42:52;;;;;;;3.75;2.50;;;10.90;99.90;;;10.89;67.28;96771.44;4949107;28;20242;-41
2022/04/06 07:45:21;;;;;;;4.77;2.90;;;10.90;99.90;;;10.91;67.35;96770.25;4948609;29;20055;-41
2022/04/06 07:47:51;;;;;;;5.00;2.85;;;10.90;99.90;;;10.92;67.17;96769.25;4948543;29;20426;-41
2022/04/06 07:50:22;;;;;;;3.93;2.63;;;10.90;99.90;;;10.83;67.16;96763.16;4948180;28;20053;-42
2022/04/06 07:52:53;;;;;;;3.92;2.55;;;10.80;99.90;;;10.87;67.06;96771.63;4958006;28;20344;-42
2022/04/06 07:55:21;;;;;;;4.35;2.63;;;10.80;99.90;;;10.83;67.09;96760.50;4958481;28;20055;-42
2022/04/06 07:57:50;;;;;;;4.40;2.83;;;10.80;99.90;;;10.87;67.04;96768.97;4957867;29;20043;-42
2022/04/06 08:00:23;;;;;;;3.08;2.55;;;10.80;99.90;;;10.89;66.80;96758.13;4957039;29;20047;-42
2022/04/06 08:02:51;;;;;;;5.93;2.57;;;10.80;99.90;;;10.91;66.90;96759.59;4959464;29;20047;-42
2022/04/06 08:05:20;;;;;;;3.28;2.50;;;10.90;99.90;;;10.94;67.19;96755.75;4957008;28;20043;-40
2022/04/06 08:07:50;;;;;;;3.05;2.20;;;10.90;99.90;;;10.95;66.85;96760.06;4955532;28;20257;-42
2022/04/06 08:10:19;;;;;;;2.60;2.17;;;11.00;99.90;;;10.96;66.67;96759.88;4957355;28;20240;-40
2022/04/06 08:12:48;;;;;;;4.40;2.23;;;11.00;99.90;;;11.00;66.95;96766.47;4958669;28;20863;-41
2022/04/06 08:15:16;;;;;;;3.22;2.03;;;11.10;99.90;;;11.00;67.02;96766.47;4958781;28;20054;-40
2022/04/06 08:17:48;;;;;;;2.80;2.00;;;11.10;99.90;;;11.06;66.39;96761.44;4957035;28;20053;-41
2022/04/06 08:20:18;;;;;;;2.55;1.65;;;11.20;99.90;;;11.14;66.43;96762.13;4957555;28;20053;-42
2022/04/06 08:22:48;;;;;;;4.05;1.63;;;11.30;99.90;;;11.16;66.34;96762.78;4959351;28;20043;-42
2022/04/06 08:25:17;;;;;;;1.90;1.33;;;11.30;99.90;;;11.11;65.96;96762.53;4955068;28;20042;-42
2022/04/06 08:28:05;;;;;;;3.58;1.40;;;11.30;99.50;;;11.14;64.96;96754.16;4957042;28;20250;-41
2022/04/06 08:30:39;;;;;;;2.45;1.40;;;11.30;97.90;;;11.17;64.62;96747.63;4959639;28;20046;-42
2022/04/06 08:33:10;;;;;;;1.88;1.33;;;11.30;94.10;;;11.17;62.31;96758.28;4957124;28;20055;-41
2022/04/06 08:35:39;;;;;;;1.60;1.20;;;11.30;86.60;;;11.18;63.24;96744.75;4957347;28;20347;-42
2022/04/06 08:38:11;;;;;;;1.85;1.13;;;11.30;87.60;;;11.18;62.12;96746.59;4961453;28;20051;-42
2022/04/06 08:40:44;;;;;;;2.88;1.55;;;11.30;87.50;;;11.08;60.79;96744.25;4962766;29;20043;-41
2022/04/06 08:43:14;;;;;;;2.30;1.58;;;11.30;82.10;;;11.14;61.31;96750.66;4963544;28;20054;-42
2022/04/06 08:45:42;;;;;;;1.95;1.48;;;11.30;83.50;;;11.19;61.80;96753.59;4960061;29;20219;-42
2022/04/06 08:48:11;;;;;;;2.13;1.50;;;11.30;84.60;;;11.23;61.29;96745.03;4962529;29;20043;-42
2022/04/06 08:50:40;;;;;;;1.77;1.30;;;11.40;83.00;;;11.23;60.66;96753.03;4959404;28;20070;-41
2022/04/06 08:53:08;;;;;;;2.58;1.80;;;11.40;82.20;;;11.20;60.15;96745.41;4955929;29;20349;-41
2022/04/06 08:55:36;;;;;;;2.08;1.20;;;11.40;78.70;;;11.22;60.29;96742.56;4955781;29;20055;-41
2022/04/06 08:58:04;;;;;;;1.85;1.50;;;11.40;80.70;;;11.29;60.68;96751.47;4951922;29;20059;-41
2022/04/06 09:00:32;;;;;;;1.48;1.10;;;11.50;81.50;;;11.33;60.65;96743.91;4953165;29;20241;-42
2022/04/06 09:03:00;;;;;;;1.63;1.20;;;11.60;79.80;;;11.42;59.96;96753.47;4951466;29;20059;-43
2022/04/06 09:05:32;;;;;;;1.27;1.07;;;11.70;78.20;;;11.48;60.09;96750.03;4948741;29;20059;-42
2022/04/06 09:08:03;;;;;;;3.75;2.55;;;11.70;79.20;;;11.56;59.98;96743.75;4949704;29;20051;-43
2022/04/06 09:10:36;;;;;;;;;;;11.80;79.00;;;11.60;60.46;96743.19;4949705;29;20054;-42
2022/04/06 09:13:20;;;;;;;1.38;0.93;;;11.90;75.60;;;11.67;59.79;96745.09;4946923;29;20392;-41
2022/04/06 09:15:58;;;;;;;2.00;1.30;;;11.90;77.00;;;11.60;57.48;96737.84;4950136;29;20341;-42
2022/04/06 09:18:34;;;;;;;2.58;1.40;;;11.90;73.00;;;11.67;58.29;96737.94;4948144;28;20073;-42
2022/04/06 09:21:03;;;;;;;1.60;1.05;;;12.00;75.10;;;11.75;58.79;96734.31;4951753;29;20057;-42
2022/04/06 09:23:34;;;;;;;1.60;0.90;;;12.00;75.90;;;11.84;59.22;96733.16;4952786;29;20367;-42
2022/04/06 09:26:08;;;;;;;1.52;0.90;;;12.20;75.40;;;11.79;57.46;96733.72;4951572;28;20067;-41
2022/04/06 09:28:42;;;;;;;1.23;0.73;;;12.20;72.70;;;11.84;57.63;96727.81;4951320;29;20065;-41
2022/04/06 09:31:18;;;;;;;1.40;0.90;;;12.20;73.00;;;11.83;57.50;96743.00;4952195;29;20248;-42
2022/04/06 09:34:02;;;;;;;0.93;0.68;;;12.30;72.90;;;11.91;57.21;96726.06;4949768;29;20055;-42
2022/04/06 09:36:34;;;;;;;0.85;0.65;;;12.40;71.40;;;11.98;57.60;96718.97;4951068;28;20365;-44
2022/04/06 09:39:02;;;;;;;0.77;0.77;;;12.40;73.10;;;11.96;57.15;96714.81;4951631;29;20075;-42
2022/04/06 09:41:30;;;;;;;0.73;0.60;;;12.40;71.60;;;11.92;55.47;96717.06;4950919;28;20063;-41
2022/04/06 09:47:38;;;;;;;0.70;0.63;;;12.40;68.40;;;11.89;55.50;96712.09;4952360;28;20252;-43
2022/04/06 09:50:22;;;;;;;0.68;0.55;;;12.50;68.30;;;12.02;53.34;96716.75;4951905;29;20063;-42
2022/04/06 09:52:52;;;;;;;0.73;0.60;;;12.50;65.20;;;12.16;55.61;96709.66;4952627;28;20350;-41
2022/04/06 09:55:22;;;;;;;2.13;0.70;;;12.50;69.20;;;12.14;55.04;96707.19;4948634;29;20073;-42
2022/04/06 09:57:53;;;;;;;1.77;0.70;;;12.50;68.00;;;12.21;54.42;96709.88;4951561;29;20059;-41
2022/04/06 10:00:24;;;;;;;0.60;0.50;;;12.50;68.00;;;12.16;54.25;96705.13;4951357;29;20055;-41
2022/04/06 10:03:13;;;;;;;0.52;0.52;;;12.50;67.70;;;12.13;53.54;96705.50;4950536;28;20055;-41
2022/04/06 10:05:46;;;;;;;0.77;0.52;;;12.50;65.70;;;12.20;54.41;96701.06;4949536;29;20250;-42
2022/04/06 10:08:17;;;;;;;0.57;0.57;;;12.50;66.10;;;12.29;55.79;96700.91;4951428;29;20063;-41
2022/04/06 10:10:47;;;;;;;0.93;0.73;;;12.50;69.40;;;12.29;54.89;96698.22;4949544;29;20065;-41
2022/04/06 10:13:17;;;;;;;1.33;1.02;;;12.60;66.80;;;12.36;55.06;96699.13;4949813;28;20059;-41
2022/04/06 10:16:10;;;;;;;0.70;0.57;;;12.60;67.80;;;12.24;53.18;96693.50;4951309;29;20055;-41
2022/04/06 10:18:40;;;;;;;0.68;0.68;;;12.60;64.10;;;12.39;53.86;96685.38;4950830;29;20047;-41
2022/04/06 10:21:20;;;;;;;0.60;0.60;;;12.70;64.50;;;12.34;53.48;96677.94;4933248;29;20063;-42
2022/04/06 10:24:14;;;;;;;0.60;0.60;;;12.70;65.20;;;12.31;54.04;96674.84;4951039;29;20647;-42
2022/04/06 10:27:32;;;;;;;0.65;0.60;;;12.60;65.30;;;12.50;54.24;96668.78;4951294;29;20051;-42
2022/04/06 10:30:23;;;;;;;0.40;0.40;;;12.80;65.20;;;12.43;53.28;96665.28;4951963;28;20061;-42
2022/04/06 10:32:57;;;;;;;0.80;0.52;;;12.90;64.50;;;12.44;53.96;96661.59;4949058;29;20051;-43
2022/04/06 10:35:34;;;;;;;0.52;0.52;;;12.80;64.90;;;12.62;54.20;96663.75;4949824;28;20059;-42
2022/04/06 10:38:05;;;;;;;0.93;0.70;;;13.00;65.80;;;12.77;54.46;96659.06;4950413;29;20249;-42
2022/04/06 10:40:54;;;;;;;1.42;0.88;;;13.20;66.50;;;12.82;52.38;96649.66;4949493;29;20066;-42
2022/04/06 10:43:38;;;;;;;1.10;0.80;;;13.40;62.70;;;12.78;51.42;96642.03;4951718;29;20571;-41